Weso, Nevada
Current Conditions -  °F | °C
As of 9:56 AM on Tuesday 21 Oct 2014 (Local Time) from KWMC Reporting Station
Few Clouds Few Clouds  
Wind Chill: 45°   Ceiling: Unl
Heat Index: 49°   Visibility: 10mi
Dew Point: 33°   Wind: 10mph
Humidity: 54%   Direction: 220°SW
Pressure: 30.13"   Gusts: NA
Location:  41.1353°N, 118.186°W
Report Text: KWMC 211656Z AUTO 22009KT 10SM FEW040 09/01 A3013 RMK AO2 SLP183 T00940006
Loading
Personal Weather Stations






























Interactive Weather Map
Tropical Storm Tracking
New forecast layout! Learn more

10-Day Weather Forecast

Advertisements
Track Severe Weather on mobile